^^
TXWeather Station Historical Data
Daily Summary for January 26, 2022 Units:  Both    English   Metric
Daily Weekly Monthly Yearly Custom
  High: Low: Average:
Temperature: 58.0 °F /  14.4 °C 38.0 °F /  3.3 °C 47.3 °F /  8.5 °C
Dew Point: 44.0 °F /  6.7 °C 32.0 °F /  0 °C 37.8 °F /  3.2 °C
Humidity: 88% 53% 71%
Wind Speed: 13mph /  20.9km/h - 5mph /  8km/h
Wind Gust: 14mph /  22.5km/h - -
Wind- - NE
Pressure: 30.4 in /  1029.3 hPa 30.3 in /  1026 hPa -
Precipitation: 0.000 in /  0 mm    
Historical Graphs
 
 
Tabular Data for January 26, 2022
Time Temperature Dew Point Pressure Wind Wind Speed Wind Gust Humidity Rainfall Rate (Hourly) solar
00:04 48.0 °F /  8.9 °C 43.0 °F /  6.1 °C 30.3in /  1026hPa NE 2mph /  3.2km/h 2mph /  3.2km/h 85% 0.000in /  0mm 0.00 W/m2
00:09 48.0 °F /  8.9 °C 44.0 °F /  6.7 °C 30.3in /  1026hPa ENE 3mph /  4.8km/h 3mph /  4.8km/h 86% 0.000in /  0mm 0.00 W/m2
00:14 47.0 °F /  8.3 °C 43.0 °F /  6.1 °C 30.3in /  1026hPa ENE 3mph /  4.8km/h 3mph /  4.8km/h 86% 0.000in /  0mm 0.00 W/m2
00:19 47.0 °F /  8.3 °C 43.0 °F /  6.1 °C 30.3in /  1026hPa NE 5mph /  8km/h 5mph /  8km/h 86% 0.000in /  0mm 0.00 W/m2
00:24 47.0 °F /  8.3 °C 43.0 °F /  6.1 °C 30.3in /  1026hPa NNE 4mph /  6.4km/h 4mph /  6.4km/h 86% 0.000in /  0mm 0.00 W/m2
00:29 47.0 °F /  8.3 °C 43.0 °F /  6.1 °C 30.3in /  1026hPa NE 3mph /  4.8km/h 4mph /  6.4km/h 86% 0.000in /  0mm 0.00 W/m2
00:34 47.0 °F /  8.3 °C 43.0 °F /  6.1 °C 30.3in /  1026hPa NE 5mph /  8km/h 5mph /  8km/h 86% 0.000in /  0mm 0.00 W/m2
00:39 47.0 °F /  8.3 °C 43.0 °F /  6.1 °C 30.3in /  1026hPa NE 4mph /  6.4km/h 5mph /  8km/h 86% 0.000in /  0mm 0.00 W/m2
00:44 47.0 °F /  8.3 °C 43.0 °F /  6.1 °C 30.3in /  1026hPa NE 4mph /  6.4km/h 5mph /  8km/h 86% 0.000in /  0mm 0.00 W/m2
00:49 47.0 °F /  8.3 °C 43.0 °F /  6.1 °C 30.3in /  1026hPa NE 5mph /  8km/h 5mph /  8km/h 87% 0.000in /  0mm 0.00 W/m2
00:54 47.0 °F /  8.3 °C 43.0 °F /  6.1 °C 30.3in /  1026hPa NE 5mph /  8km/h 6mph /  9.7km/h 87% 0.000in /  0mm 0.00 W/m2
00:59 47.0 °F /  8.3 °C 43.0 °F /  6.1 °C 30.3in /  1026hPa NE 3mph /  4.8km/h 3mph /  4.8km/h 87% 0.000in /  0mm 0.00 W/m2
01:04 47.0 °F /  8.3 °C 43.0 °F /  6.1 °C 30.3in /  1026hPa NNE 5mph /  8km/h 5mph /  8km/h 87% 0.000in /  0mm 0.00 W/m2
01:09 47.0 °F /  8.3 °C 43.0 °F /  6.1 °C 30.3in /  1026hPa NE 3mph /  4.8km/h 3mph /  4.8km/h 87% 0.000in /  0mm 0.00 W/m2
01:14 47.0 °F /  8.3 °C 43.0 °F /  6.1 °C 30.3in /  1026hPa North 4mph /  6.4km/h 4mph /  6.4km/h 87% 0.000in /  0mm 0.00 W/m2
01:19 47.0 °F /  8.3 °C 43.0 °F /  6.1 °C 30.3in /  1026hPa NNE 8mph /  12.9km/h 8mph /  12.9km/h 87% 0.000in /  0mm 0.00 W/m2
01:24 47.0 °F /  8.3 °C 43.0 °F /  6.1 °C 30.3in /  1026hPa NNE 6mph /  9.7km/h 8mph /  12.9km/h 87% 0.000in /  0mm 0.00 W/m2
01:29 47.0 °F /  8.3 °C 43.0 °F /  6.1 °C 30.3in /  1026hPa NE 5mph /  8km/h 5mph /  8km/h 87% 0.000in /  0mm 0.00 W/m2
01:34 46.0 °F /  7.8 °C 43.0 °F /  6.1 °C 30.3in /  1026hPa NE 3mph /  4.8km/h 5mph /  8km/h 87% 0.000in /  0mm 0.00 W/m2
01:39 46.0 °F /  7.8 °C 43.0 °F /  6.1 °C 30.3in /  1026hPa NE 3mph /  4.8km/h 3mph /  4.8km/h 87% 0.000in /  0mm 0.00 W/m2
01:44 46.0 °F /  7.8 °C 43.0 °F /  6.1 °C 30.3in /  1026hPa NE 2mph /  3.2km/h 3mph /  4.8km/h 87% 0.000in /  0mm 0.00 W/m2
01:49 46.0 °F /  7.8 °C 42.0 °F /  5.6 °C 30.3in /  1026hPa NE 3mph /  4.8km/h 3mph /  4.8km/h 87% 0.000in /  0mm 0.00 W/m2
01:54 46.0 °F /  7.8 °C 42.0 °F /  5.6 °C 30.3in /  1026hPa NE 3mph /  4.8km/h 3mph /  4.8km/h 87% 0.000in /  0mm 0.00 W/m2
01:59 46.0 °F /  7.8 °C 42.0 °F /  5.6 °C 30.3in /  1026hPa ENE 3mph /  4.8km/h 4mph /  6.4km/h 87% 0.000in /  0mm 0.00 W/m2
02:04 46.0 °F /  7.8 °C 42.0 °F /  5.6 °C 30.3in /  1026hPa NE 3mph /  4.8km/h 3mph /  4.8km/h 87% 0.000in /  0mm 0.00 W/m2
02:09 46.0 °F /  7.8 °C 42.0 °F /  5.6 °C 30.3in /  1026hPa NE 5mph /  8km/h 5mph /  8km/h 87% 0.000in /  0mm 0.00 W/m2
02:14 46.0 °F /  7.8 °C 42.0 °F /  5.6 °C 30.3in /  1026hPa NE 5mph /  8km/h 6mph /  9.7km/h 87% 0.000in /  0mm 0.00 W/m2
02:19 45.0 °F /  7.2 °C 42.0 °F /  5.6 °C 30.3in /  1026hPa NE 5mph /  8km/h 6mph /  9.7km/h 87% 0.000in /  0mm 0.00 W/m2
02:24 45.0 °F /  7.2 °C 42.0 °F /  5.6 °C 30.3in /  1026hPa NE 4mph /  6.4km/h 6mph /  9.7km/h 87% 0.000in /  0mm 0.00 W/m2
02:29 45.0 °F /  7.2 °C 42.0 °F /  5.6 °C 30.3in /  1026hPa NE 4mph /  6.4km/h 5mph /  8km/h 87% 0.000in /  0mm 0.00 W/m2
02:34 45.0 °F /  7.2 °C 41.0 °F /  5 °C 30.3in /  1026hPa NNE 3mph /  4.8km/h 4mph /  6.4km/h 87% 0.000in /  0mm 0.00 W/m2
02:39 45.0 °F /  7.2 °C 41.0 °F /  5 °C 30.3in /  1026hPa NE 4mph /  6.4km/h 5mph /  8km/h 87% 0.000in /  0mm 0.00 W/m2
02:44 45.0 °F /  7.2 °C 41.0 °F /  5 °C 30.3in /  1026hPa NE 5mph /  8km/h 5mph /  8km/h 87% 0.000in /  0mm 0.00 W/m2
02:49 45.0 °F /  7.2 °C 41.0 °F /  5 °C 30.3in /  1026hPa NE 3mph /  4.8km/h 4mph /  6.4km/h 87% 0.000in /  0mm 0.00 W/m2
02:54 44.0 °F /  6.7 °C 41.0 °F /  5 °C 30.3in /  1026hPa NE 3mph /  4.8km/h 4mph /  6.4km/h 87% 0.000in /  0mm 0.00 W/m2
02:59 44.0 °F /  6.7 °C 41.0 °F /  5 °C 30.3in /  1026hPa NE 3mph /  4.8km/h 4mph /  6.4km/h 87% 0.000in /  0mm 0.00 W/m2
03:04 44.0 °F /  6.7 °C 41.0 °F /  5 °C 30.3in /  1026hPa NE 3mph /  4.8km/h 4mph /  6.4km/h 87% 0.000in /  0mm 0.00 W/m2
03:09 44.0 °F /  6.7 °C 41.0 °F /  5 °C 30.3in /  1026hPa NE 3mph /  4.8km/h 3mph /  4.8km/h 87% 0.000in /  0mm 0.00 W/m2
03:14 44.0 °F /  6.7 °C 41.0 °F /  5 °C 30.3in /  1026hPa NE 4mph /  6.4km/h 4mph /  6.4km/h 88% 0.000in /  0mm 0.00 W/m2
03:19 44.0 °F /  6.7 °C 41.0 °F /  5 °C 30.3in /  1026hPa NNE 4mph /  6.4km/h 4mph /  6.4km/h 88% 0.000in /  0mm 0.00 W/m2
03:24 44.0 °F /  6.7 °C 41.0 °F /  5 °C 30.3in /  1026hPa NNE 4mph /  6.4km/h 4mph /  6.4km/h 88% 0.000in /  0mm 0.00 W/m2
03:29 44.0 °F /  6.7 °C 41.0 °F /  5 °C 30.3in /  1026hPa NNE 7mph /  11.3km/h 7mph /  11.3km/h 88% 0.000in /  0mm 0.00 W/m2
03:34 44.0 °F /  6.7 °C 41.0 °F /  5 °C 30.3in /  1026hPa NNE 7mph /  11.3km/h 9mph /  14.5km/h 88% 0.000in /  0mm 0.00 W/m2
03:39 44.0 °F /  6.7 °C 41.0 °F /  5 °C 30.3in /  1026hPa NE 10mph /  16.1km/h 11mph /  17.7km/h 88% 0.000in /  0mm 0.00 W/m2
03:44 44.0 °F /  6.7 °C 41.0 °F /  5 °C 30.3in /  1026hPa NE 6mph /  9.7km/h 8mph /  12.9km/h 88% 0.000in /  0mm 0.00 W/m2
03:49 44.0 °F /  6.7 °C 40.0 °F /  4.4 °C 30.3in /  1026hPa NE 9mph /  14.5km/h 10mph /  16.1km/h 87% 0.000in /  0mm 0.00 W/m2
03:54 43.0 °F /  6.1 °C 40.0 °F /  4.4 °C 30.3in /  1026hPa NE 8mph /  12.9km/h 9mph /  14.5km/h 87% 0.000in /  0mm 0.00 W/m2
03:59 43.0 °F /  6.1 °C 40.0 °F /  4.4 °C 30.3in /  1026hPa NNE 7mph /  11.3km/h 8mph /  12.9km/h 87% 0.000in /  0mm 0.00 W/m2
04:04 43.0 °F /  6.1 °C 39.0 °F /  3.9 °C 30.3in /  1026hPa NE 8mph /  12.9km/h 8mph /  12.9km/h 87% 0.000in /  0mm 0.00 W/m2
04:09 43.0 °F /  6.1 °C 39.0 °F /  3.9 °C 30.3in /  1026hPa NNE 9mph /  14.5km/h 10mph /  16.1km/h 87% 0.000in /  0mm 0.00 W/m2
04:14 42.0 °F /  5.6 °C 39.0 °F /  3.9 °C 30.3in /  1026hPa NE 6mph /  9.7km/h 10mph /  16.1km/h 86% 0.000in /  0mm 0.00 W/m2
04:19 42.0 °F /  5.6 °C 39.0 °F /  3.9 °C 30.3in /  1026hPa NE 5mph /  8km/h 6mph /  9.7km/h 86% 0.000in /  0mm 0.00 W/m2
04:24 42.0 °F /  5.6 °C 39.0 °F /  3.9 °C 30.3in /  1026hPa NNE 6mph /  9.7km/h 6mph /  9.7km/h 86% 0.000in /  0mm 0.00 W/m2
04:29 42.0 °F /  5.6 °C 38.0 °F /  3.3 °C 30.3in /  1026hPa NE 5mph /  8km/h 6mph /  9.7km/h 86% 0.000in /  0mm 0.00 W/m2
04:34 42.0 °F /  5.6 °C 38.0 °F /  3.3 °C 30.3in /  1026hPa NE 3mph /  4.8km/h 3mph /  4.8km/h 86% 0.000in /  0mm 0.00 W/m2
04:39 42.0 °F /  5.6 °C 38.0 °F /  3.3 °C 30.3in /  1026hPa NE 5mph /  8km/h 7mph /  11.3km/h 86% 0.000in /  0mm 0.00 W/m2
04:44 42.0 °F /  5.6 °C 38.0 °F /  3.3 °C 30.3in /  1026hPa NNE 7mph /  11.3km/h 8mph /  12.9km/h 85% 0.000in /  0mm 0.00 W/m2
04:49 42.0 °F /  5.6 °C 38.0 °F /  3.3 °C 30.3in /  1026hPa NNE 5mph /  8km/h 8mph /  12.9km/h 85% 0.000in /  0mm 0.00 W/m2
04:54 42.0 °F /  5.6 °C 38.0 °F /  3.3 °C 30.3in /  1026hPa NNE 7mph /  11.3km/h 7mph /  11.3km/h 85% 0.000in /  0mm 0.00 W/m2
04:59 42.0 °F /  5.6 °C 37.0 °F /  2.8 °C 30.3in /  1026hPa NNE 5mph /  8km/h 7mph /  11.3km/h 85% 0.000in /  0mm 0.00 W/m2
05:04 42.0 °F /  5.6 °C 37.0 °F /  2.8 °C 30.3in /  1026hPa NNE 6mph /  9.7km/h 9mph /  14.5km/h 85% 0.000in /  0mm 0.00 W/m2
05:09 41.0 °F /  5 °C 37.0 °F /  2.8 °C 30.3in /  1026hPa NNE 10mph /  16.1km/h 10mph /  16.1km/h 85% 0.000in /  0mm 0.00 W/m2
05:14 41.0 °F /  5 °C 37.0 °F /  2.8 °C 30.3in /  1026hPa NNE 8mph /  12.9km/h 10mph /  16.1km/h 85% 0.000in /  0mm 0.00 W/m2
05:19 41.0 °F /  5 °C 37.0 °F /  2.8 °C 30.3in /  1026hPa NNE 7mph /  11.3km/h 10mph /  16.1km/h 85% 0.000in /  0mm 0.00 W/m2
05:24 41.0 °F /  5 °C 37.0 °F /  2.8 °C 30.3in /  1026hPa NNE 10mph /  16.1km/h 10mph /  16.1km/h 85% 0.000in /  0mm 0.00 W/m2
05:29 41.0 °F /  5 °C 37.0 °F /  2.8 °C 30.3in /  1026hPa NNE 7mph /  11.3km/h 10mph /  16.1km/h 85% 0.000in /  0mm 0.00 W/m2
05:34 41.0 °F /  5 °C 37.0 °F /  2.8 °C 30.3in /  1026hPa NNE 12mph /  19.3km/h 14mph /  22.5km/h 85% 0.000in /  0mm 0.00 W/m2
05:39 41.0 °F /  5 °C 36.0 °F /  2.2 °C 30.3in /  1026hPa NE 9mph /  14.5km/h 9mph /  14.5km/h 84% 0.000in /  0mm 0.00 W/m2
05:44 40.0 °F /  4.4 °C 36.0 °F /  2.2 °C 30.3in /  1026hPa NE 12mph /  19.3km/h 12mph /  19.3km/h 84% 0.000in /  0mm 0.00 W/m2
05:49 40.0 °F /  4.4 °C 36.0 °F /  2.2 °C 30.3in /  1026hPa NNE 8mph /  12.9km/h 12mph /  19.3km/h 84% 0.000in /  0mm 0.00 W/m2
05:54 40.0 °F /  4.4 °C 36.0 °F /  2.2 °C 30.3in /  1026hPa NNE 9mph /  14.5km/h 10mph /  16.1km/h 84% 0.000in /  0mm 0.00 W/m2
05:59 40.0 °F /  4.4 °C 35.0 °F /  1.7 °C 30.3in /  1026hPa NNE 5mph /  8km/h 9mph /  14.5km/h 83% 0.000in /  0mm 0.00 W/m2
06:04 40.0 °F /  4.4 °C 35.0 °F /  1.7 °C 30.3in /  1026hPa NNE 8mph /  12.9km/h 10mph /  16.1km/h 83% 0.000in /  0mm 0.00 W/m2
06:09 40.0 °F /  4.4 °C 35.0 °F /  1.7 °C 30.3in /  1026hPa NE 8mph /  12.9km/h 10mph /  16.1km/h 83% 0.000in /  0mm 0.00 W/m2
06:14 40.0 °F /  4.4 °C 35.0 °F /  1.7 °C 30.3in /  1026hPa NE 7mph /  11.3km/h 9mph /  14.5km/h 83% 0.000in /  0mm 0.00 W/m2
06:19 40.0 °F /  4.4 °C 35.0 °F /  1.7 °C 30.3in /  1026hPa NE 7mph /  11.3km/h 10mph /  16.1km/h 82% 0.000in /  0mm 0.00 W/m2
06:24 39.0 °F /  3.9 °C 34.0 °F /  1.1 °C 30.3in /  1026hPa NNE 10mph /  16.1km/h 10mph /  16.1km/h 82% 0.000in /  0mm 0.00 W/m2
06:29 39.0 °F /  3.9 °C 34.0 °F /  1.1 °C 30.3in /  1026hPa NNE 8mph /  12.9km/h 10mph /  16.1km/h 82% 0.000in /  0mm 0.00 W/m2
06:34 39.0 °F /  3.9 °C 34.0 °F /  1.1 °C 30.3in /  1026hPa NNE 10mph /  16.1km/h 10mph /  16.1km/h 81% 0.000in /  0mm 0.00 W/m2
06:39 39.0 °F /  3.9 °C 34.0 °F /  1.1 °C 30.3in /  1026hPa NNE 9mph /  14.5km/h 9mph /  14.5km/h 81% 0.000in /  0mm 0.00 W/m2
06:44 39.0 °F /  3.9 °C 34.0 °F /  1.1 °C 30.4in /  1029.3hPa NE 6mph /  9.7km/h 9mph /  14.5km/h 81% 0.000in /  0mm 0.00 W/m2
06:49 39.0 °F /  3.9 °C 33.0 °F /  0.6 °C 30.4in /  1029.3hPa NE 6mph /  9.7km/h 8mph /  12.9km/h 81% 0.000in /  0mm 0.00 W/m2
06:54 39.0 °F /  3.9 °C 33.0 °F /  0.6 °C 30.4in /  1029.3hPa NE 9mph /  14.5km/h 9mph /  14.5km/h 81% 0.000in /  0mm 0.00 W/m2
06:59 39.0 °F /  3.9 °C 33.0 °F /  0.6 °C 30.4in /  1029.3hPa NNE 10mph /  16.1km/h 10mph /  16.1km/h 81% 0.000in /  0mm 0.00 W/m2
07:04 39.0 °F /  3.9 °C 33.0 °F /  0.6 °C 30.4in /  1029.3hPa NNE 9mph /  14.5km/h 10mph /  16.1km/h 81% 0.000in /  0mm 0.00 W/m2
07:09 39.0 °F /  3.9 °C 33.0 °F /  0.6 °C 30.4in /  1029.3hPa NNE 6mph /  9.7km/h 9mph /  14.5km/h 81% 0.000in /  0mm 0.00 W/m2
07:14 39.0 °F /  3.9 °C 33.0 °F /  0.6 °C 30.4in /  1029.3hPa NNE 6mph /  9.7km/h 6mph /  9.7km/h 81% 0.000in /  0mm 0.00 W/m2
07:19 38.0 °F /  3.3 °C 33.0 °F /  0.6 °C 30.4in /  1029.3hPa NNE 6mph /  9.7km/h 9mph /  14.5km/h 81% 0.000in /  0mm 5.00 W/m2
07:24 38.0 °F /  3.3 °C 33.0 °F /  0.6 °C 30.4in /  1029.3hPa NNE 8mph /  12.9km/h 10mph /  16.1km/h 80% 0.000in /  0mm 7.00 W/m2
07:29 38.0 °F /  3.3 °C 32.0 °F /  0 °C 30.4in /  1029.3hPa NNE 8mph /  12.9km/h 10mph /  16.1km/h 80% 0.000in /  0mm 9.00 W/m2
07:34 38.0 °F /  3.3 °C 32.0 °F /  0 °C 30.4in /  1029.3hPa NNE 9mph /  14.5km/h 10mph /  16.1km/h 80% 0.000in /  0mm 12.00 W/m2
07:39 38.0 °F /  3.3 °C 32.0 °F /  0 °C 30.4in /  1029.3hPa NNE 9mph /  14.5km/h 10mph /  16.1km/h 80% 0.000in /  0mm 14.00 W/m2
07:44 38.0 °F /  3.3 °C 32.0 °F /  0 °C 30.4in /  1029.3hPa NNE 7mph /  11.3km/h 10mph /  16.1km/h 79% 0.000in /  0mm 19.00 W/m2
07:49 38.0 °F /  3.3 °C 32.0 °F /  0 °C 30.4in /  1029.3hPa NE 10mph /  16.1km/h 10mph /  16.1km/h 79% 0.000in /  0mm 19.00 W/m2
07:54 38.0 °F /  3.3 °C 32.0 °F /  0 °C 30.4in /  1029.3hPa NE 10mph /  16.1km/h 10mph /  16.1km/h 79% 0.000in /  0mm 21.00 W/m2
07:59 38.0 °F /  3.3 °C 32.0 °F /  0 °C 30.4in /  1029.3hPa NE 6mph /  9.7km/h 7mph /  11.3km/h 78% 0.000in /  0mm 25.00 W/m2
08:04 38.0 °F /  3.3 °C 32.0 °F /  0 °C 30.4in /  1029.3hPa NNE 9mph /  14.5km/h 10mph /  16.1km/h 78% 0.000in /  0mm 25.00 W/m2
08:09 38.0 °F /  3.3 °C 32.0 °F /  0 °C 30.4in /  1029.3hPa NE 9mph /  14.5km/h 10mph /  16.1km/h 78% 0.000in /  0mm 77.00 W/m2
08:14 38.0 °F /  3.3 °C 32.0 °F /  0 °C 30.4in /  1029.3hPa NE 8mph /  12.9km/h 11mph /  17.7km/h 77% 0.000in /  0mm 120.00 W/m2
08:19 38.0 °F /  3.3 °C 32.0 °F /  0 °C 30.4in /  1029.3hPa NNE 4mph /  6.4km/h 7mph /  11.3km/h 77% 0.000in /  0mm 128.00 W/m2
08:24 39.0 °F /  3.9 °C 32.0 °F /  0 °C 30.4in /  1029.3hPa NE 10mph /  16.1km/h 10mph /  16.1km/h 77% 0.000in /  0mm 118.00 W/m2
08:29 39.0 °F /  3.9 °C 32.0 °F /  0 °C 30.4in /  1029.3hPa NNE 11mph /  17.7km/h 12mph /  19.3km/h 77% 0.000in /  0mm 114.00 W/m2
08:34 39.0 °F /  3.9 °C 32.0 °F /  0 °C 30.4in /  1029.3hPa NE 11mph /  17.7km/h 12mph /  19.3km/h 76% 0.000in /  0mm 179.00 W/m2
08:39 39.0 °F /  3.9 °C 32.0 °F /  0 °C 30.4in /  1029.3hPa NE 13mph /  20.9km/h 13mph /  20.9km/h 75% 0.000in /  0mm 179.00 W/m2
08:44 39.0 °F /  3.9 °C 32.0 °F /  0 °C 30.4in /  1029.3hPa NNE 12mph /  19.3km/h 13mph /  20.9km/h 75% 0.000in /  0mm 146.00 W/m2
08:49 39.0 °F /  3.9 °C 32.0 °F /  0 °C 30.4in /  1029.3hPa NE 7mph /  11.3km/h 12mph /  19.3km/h 74% 0.000in /  0mm 121.00 W/m2
08:54 40.0 °F /  4.4 °C 32.0 °F /  0 °C 30.4in /  1029.3hPa NNE 11mph /  17.7km/h 11mph /  17.7km/h 74% 0.000in /  0mm 113.00 W/m2
08:59 40.0 °F /  4.4 °C 32.0 °F /  0 °C 30.4in /  1029.3hPa NNE 10mph /  16.1km/h 10mph /  16.1km/h 74% 0.000in /  0mm 248.00 W/m2
09:04 40.0 °F /  4.4 °C 33.0 °F /  0.6 °C 30.4in /  1029.3hPa NE 5mph /  8km/h 11mph /  17.7km/h 74% 0.000in /  0mm 264.00 W/m2
09:09 40.0 °F /  4.4 °C 32.0 °F /  0 °C 30.4in /  1029.3hPa NNE 9mph /  14.5km/h 10mph /  16.1km/h 73% 0.000in /  0mm 330.00 W/m2
09:14 41.0 °F /  5 °C 32.0 °F /  0 °C 30.4in /  1029.3hPa NE 7mph /  11.3km/h 8mph /  12.9km/h 73% 0.000in /  0mm 338.00 W/m2
09:19 41.0 °F /  5 °C 32.0 °F /  0 °C 30.4in /  1029.3hPa NE 9mph /  14.5km/h 9mph /  14.5km/h 72% 0.000in /  0mm 334.00 W/m2
09:24 41.0 °F /  5 °C 32.0 °F /  0 °C 30.4in /  1029.3hPa NNE 8mph /  12.9km/h 9mph /  14.5km/h 71% 0.000in /  0mm 294.00 W/m2
09:29 41.0 °F /  5 °C 33.0 °F /  0.6 °C 30.4in /  1029.3hPa NNE 11mph /  17.7km/h 13mph /  20.9km/h 71% 0.000in /  0mm 295.00 W/m2
09:34 41.0 °F /  5 °C 32.0 °F /  0 °C 30.4in /  1029.3hPa NNE 10mph /  16.1km/h 11mph /  17.7km/h 70% 0.000in /  0mm 374.00 W/m2
09:39 42.0 °F /  5.6 °C 33.0 °F /  0.6 °C 30.4in /  1029.3hPa NNE 10mph /  16.1km/h 11mph /  17.7km/h 70% 0.000in /  0mm 404.00 W/m2
09:44 42.0 °F /  5.6 °C 33.0 °F /  0.6 °C 30.4in /  1029.3hPa ENE 8mph /  12.9km/h 11mph /  17.7km/h 70% 0.000in /  0mm 434.00 W/m2
09:49 42.0 °F /  5.6 °C 33.0 °F /  0.6 °C 30.4in /  1029.3hPa ENE 6mph /  9.7km/h 10mph /  16.1km/h 69% 0.000in /  0mm 348.00 W/m2
09:54 42.0 °F /  5.6 °C 33.0 °F /  0.6 °C 30.4in /  1029.3hPa NE 7mph /  11.3km/h 10mph /  16.1km/h 69% 0.000in /  0mm 408.00 W/m2
09:59 43.0 °F /  6.1 °C 33.0 °F /  0.6 °C 30.4in /  1029.3hPa NNE 9mph /  14.5km/h 10mph /  16.1km/h 68% 0.000in /  0mm 482.00 W/m2
10:04 43.0 °F /  6.1 °C 33.0 °F /  0.6 °C 30.4in /  1029.3hPa ENE 7mph /  11.3km/h 7mph /  11.3km/h 68% 0.000in /  0mm 497.00 W/m2
10:09 44.0 °F /  6.7 °C 33.0 °F /  0.6 °C 30.4in /  1029.3hPa NNE 7mph /  11.3km/h 7mph /  11.3km/h 67% 0.000in /  0mm 508.00 W/m2
10:14 44.0 °F /  6.7 °C 33.0 °F /  0.6 °C 30.4in /  1029.3hPa ENE 8mph /  12.9km/h 8mph /  12.9km/h 67% 0.000in /  0mm 510.00 W/m2
10:19 45.0 °F /  7.2 °C 35.0 °F /  1.7 °C 30.4in /  1029.3hPa NNE 8mph /  12.9km/h 8mph /  12.9km/h 66% 0.000in /  0mm 522.00 W/m2
10:24 45.0 °F /  7.2 °C 34.0 °F /  1.1 °C 30.4in /  1029.3hPa NE 7mph /  11.3km/h 9mph /  14.5km/h 66% 0.000in /  0mm 522.00 W/m2
10:29 46.0 °F /  7.8 °C 34.0 °F /  1.1 °C 30.4in /  1029.3hPa East 7mph /  11.3km/h 7mph /  11.3km/h 63% 0.000in /  0mm 557.00 W/m2
10:34 46.0 °F /  7.8 °C 34.0 °F /  1.1 °C 30.4in /  1029.3hPa NNE 8mph /  12.9km/h 9mph /  14.5km/h 63% 0.000in /  0mm 580.00 W/m2
10:39 47.0 °F /  8.3 °C 35.0 °F /  1.7 °C 30.4in /  1029.3hPa North 7mph /  11.3km/h 9mph /  14.5km/h 63% 0.000in /  0mm 598.00 W/m2
10:44 47.0 °F /  8.3 °C 35.0 °F /  1.7 °C 30.4in /  1029.3hPa NNE 4mph /  6.4km/h 7mph /  11.3km/h 62% 0.000in /  0mm 642.00 W/m2
10:49 47.0 °F /  8.3 °C 34.0 °F /  1.1 °C 30.4in /  1029.3hPa NE 7mph /  11.3km/h 8mph /  12.9km/h 62% 0.000in /  0mm 643.00 W/m2
10:54 47.0 °F /  8.3 °C 35.0 °F /  1.7 °C 30.4in /  1029.3hPa North 9mph /  14.5km/h 9mph /  14.5km/h 62% 0.000in /  0mm 707.00 W/m2
10:59 47.0 °F /  8.3 °C 35.0 °F /  1.7 °C 30.4in /  1029.3hPa ENE 5mph /  8km/h 9mph /  14.5km/h 62% 0.000in /  0mm 694.00 W/m2
11:04 47.0 °F /  8.3 °C 34.0 °F /  1.1 °C 30.4in /  1029.3hPa NNE 7mph /  11.3km/h 7mph /  11.3km/h 60% 0.000in /  0mm 394.00 W/m2
11:09 48.0 °F /  8.9 °C 35.0 °F /  1.7 °C 30.4in /  1029.3hPa NNE 6mph /  9.7km/h 6mph /  9.7km/h 61% 0.000in /  0mm 687.00 W/m2
11:14 48.0 °F /  8.9 °C 35.0 °F /  1.7 °C 30.4in /  1029.3hPa NNE 8mph /  12.9km/h 11mph /  17.7km/h 60% 0.000in /  0mm 661.00 W/m2
11:19 48.0 °F /  8.9 °C 35.0 °F /  1.7 °C 30.4in /  1029.3hPa NE 5mph /  8km/h 11mph /  17.7km/h 60% 0.000in /  0mm 680.00 W/m2
11:24 48.0 °F /  8.9 °C 35.0 °F /  1.7 °C 30.4in /  1029.3hPa NNE 9mph /  14.5km/h 9mph /  14.5km/h 59% 0.000in /  0mm 689.00 W/m2
11:29 49.0 °F /  9.4 °C 35.0 °F /  1.7 °C 30.4in /  1029.3hPa NE 5mph /  8km/h 9mph /  14.5km/h 59% 0.000in /  0mm 689.00 W/m2
11:34 48.0 °F /  8.9 °C 34.0 °F /  1.1 °C 30.4in /  1029.3hPa NNE 5mph /  8km/h 5mph /  8km/h 58% 0.000in /  0mm 640.00 W/m2
11:39 48.0 °F /  8.9 °C 34.0 °F /  1.1 °C 30.4in /  1029.3hPa ENE 5mph /  8km/h 8mph /  12.9km/h 58% 0.000in /  0mm 612.00 W/m2
11:44 48.0 °F /  8.9 °C 35.0 °F /  1.7 °C 30.4in /  1029.3hPa NE 6mph /  9.7km/h 6mph /  9.7km/h 59% 0.000in /  0mm 513.00 W/m2
11:49 49.0 °F /  9.4 °C 35.0 °F /  1.7 °C 30.4in /  1029.3hPa NNE 3mph /  4.8km/h 6mph /  9.7km/h 58% 0.000in /  0mm 687.00 W/m2
11:54 50.0 °F /  10 °C 35.0 °F /  1.7 °C 30.4in /  1029.3hPa NE 5mph /  8km/h 5mph /  8km/h 58% 0.000in /  0mm 714.00 W/m2
11:59 50.0 °F /  10 °C 35.0 °F /  1.7 °C 30.4in /  1029.3hPa NNE 5mph /  8km/h 6mph /  9.7km/h 58% 0.000in /  0mm 712.00 W/m2
12:04 50.0 °F /  10 °C 35.0 °F /  1.7 °C 30.4in /  1029.3hPa NE 3mph /  4.8km/h 4mph /  6.4km/h 56% 0.000in /  0mm 710.00 W/m2
12:09 51.0 °F /  10.6 °C 36.0 °F /  2.2 °C 30.4in /  1029.3hPa North 9mph /  14.5km/h 9mph /  14.5km/h 58% 0.000in /  0mm 664.00 W/m2
12:14 51.0 °F /  10.6 °C 35.0 °F /  1.7 °C 30.4in /  1029.3hPa NNE 8mph /  12.9km/h 9mph /  14.5km/h 56% 0.000in /  0mm 643.00 W/m2
12:19 51.0 °F /  10.6 °C 36.0 °F /  2.2 °C 30.4in /  1029.3hPa NE 4mph /  6.4km/h 8mph /  12.9km/h 56% 0.000in /  0mm 773.00 W/m2
12:24 51.0 °F /  10.6 °C 36.0 °F /  2.2 °C 30.4in /  1029.3hPa NNE 7mph /  11.3km/h 9mph /  14.5km/h 56% 0.000in /  0mm 512.00 W/m2
12:29 51.0 °F /  10.6 °C 36.0 °F /  2.2 °C 30.4in /  1029.3hPa ENE 3mph /  4.8km/h 9mph /  14.5km/h 59% 0.000in /  0mm 411.00 W/m2
12:34 50.0 °F /  10 °C 37.0 °F /  2.8 °C 30.4in /  1029.3hPa NE 4mph /  6.4km/h 4mph /  6.4km/h 60% 0.000in /  0mm 696.00 W/m2
12:39 51.0 °F /  10.6 °C 38.0 °F /  3.3 °C 30.4in /  1029.3hPa ENE 4mph /  6.4km/h 5mph /  8km/h 60% 0.000in /  0mm 756.00 W/m2
12:44 53.0 °F /  11.7 °C 39.0 °F /  3.9 °C 30.4in /  1029.3hPa NNE 6mph /  9.7km/h 6mph /  9.7km/h 60% 0.000in /  0mm 867.00 W/m2
12:49 53.0 °F /  11.7 °C 39.0 °F /  3.9 °C 30.3in /  1026hPa NE 6mph /  9.7km/h 8mph /  12.9km/h 59% 0.000in /  0mm 875.00 W/m2
12:54 54.0 °F /  12.2 °C 39.0 °F /  3.9 °C 30.3in /  1026hPa NNE 4mph /  6.4km/h 5mph /  8km/h 57% 0.000in /  0mm 896.00 W/m2
12:59 54.0 °F /  12.2 °C 39.0 °F /  3.9 °C 30.3in /  1026hPa ESE 8mph /  12.9km/h 8mph /  12.9km/h 57% 0.000in /  0mm 879.00 W/m2
13:04 55.0 °F /  12.8 °C 40.0 °F /  4.4 °C 30.3in /  1026hPa NE 5mph /  8km/h 5mph /  8km/h 57% 0.000in /  0mm 826.00 W/m2
13:09 55.0 °F /  12.8 °C 39.0 °F /  3.9 °C 30.3in /  1026hPa ENE 5mph /  8km/h 6mph /  9.7km/h 55% 0.000in /  0mm 728.00 W/m2
13:14 54.0 °F /  12.2 °C 39.0 °F /  3.9 °C 30.3in /  1026hPa NE 6mph /  9.7km/h 8mph /  12.9km/h 57% 0.000in /  0mm 701.00 W/m2
13:19 54.0 °F /  12.2 °C 39.0 °F /  3.9 °C 30.3in /  1026hPa North 6mph /  9.7km/h 6mph /  9.7km/h 57% 0.000in /  0mm 724.00 W/m2
13:24 54.0 °F /  12.2 °C 39.0 °F /  3.9 °C 30.3in /  1026hPa North 5mph /  8km/h 6mph /  9.7km/h 57% 0.000in /  0mm 698.00 W/m2
13:29 54.0 °F /  12.2 °C 39.0 °F /  3.9 °C 30.3in /  1026hPa NE 7mph /  11.3km/h 9mph /  14.5km/h 56% 0.000in /  0mm 682.00 W/m2
13:34 54.0 °F /  12.2 °C 38.0 °F /  3.3 °C 30.3in /  1026hPa East 4mph /  6.4km/h 9mph /  14.5km/h 55% 0.000in /  0mm 598.00 W/m2
13:39 54.0 °F /  12.2 °C 39.0 °F /  3.9 °C 30.3in /  1026hPa NNE 6mph /  9.7km/h 6mph /  9.7km/h 56% 0.000in /  0mm 698.00 W/m2
13:44 55.0 °F /  12.8 °C 40.0 °F /  4.4 °C 30.3in /  1026hPa ENE 4mph /  6.4km/h 6mph /  9.7km/h 57% 0.000in /  0mm 707.00 W/m2
13:49 56.0 °F /  13.3 °C 40.0 °F /  4.4 °C 30.3in /  1026hPa ESE 3mph /  4.8km/h 6mph /  9.7km/h 55% 0.000in /  0mm 694.00 W/m2
13:54 56.0 °F /  13.3 °C 40.0 °F /  4.4 °C 30.3in /  1026hPa ENE 5mph /  8km/h 5mph /  8km/h 55% 0.000in /  0mm 670.00 W/m2
13:59 56.0 °F /  13.3 °C 40.0 °F /  4.4 °C 30.3in /  1026hPa North 5mph /  8km/h 5mph /  8km/h 55% 0.000in /  0mm 666.00 W/m2
14:04 56.0 °F /  13.3 °C 40.0 °F /  4.4 °C 30.3in /  1026hPa North 6mph /  9.7km/h 6mph /  9.7km/h 54% 0.000in /  0mm 652.00 W/m2
14:09 55.0 °F /  12.8 °C 39.0 °F /  3.9 °C 30.3in /  1026hPa NNW 6mph /  9.7km/h 7mph /  11.3km/h 54% 0.000in /  0mm 679.00 W/m2
14:14 56.0 °F /  13.3 °C 40.0 °F /  4.4 °C 30.3in /  1026hPa NNE 7mph /  11.3km/h 7mph /  11.3km/h 56% 0.000in /  0mm 675.00 W/m2
14:19 56.0 °F /  13.3 °C 40.0 °F /  4.4 °C 30.3in /  1026hPa ENE 4mph /  6.4km/h 4mph /  6.4km/h 54% 0.000in /  0mm 624.00 W/m2
14:24 56.0 °F /  13.3 °C 40.0 °F /  4.4 °C 30.3in /  1026hPa WNW 5mph /  8km/h 8mph /  12.9km/h 55% 0.000in /  0mm 619.00 W/m2
14:29 56.0 °F /  13.3 °C 40.0 °F /  4.4 °C 30.3in /  1026hPa NNE 9mph /  14.5km/h 10mph /  16.1km/h 55% 0.000in /  0mm 619.00 W/m2
14:34 57.0 °F /  13.9 °C 40.0 °F /  4.4 °C 30.3in /  1026hPa East 8mph /  12.9km/h 8mph /  12.9km/h 54% 0.000in /  0mm 585.00 W/m2
14:39 57.0 °F /  13.9 °C 40.0 °F /  4.4 °C 30.3in /  1026hPa East 7mph /  11.3km/h 8mph /  12.9km/h 54% 0.000in /  0mm 575.00 W/m2
14:44 56.0 °F /  13.3 °C 40.0 °F /  4.4 °C 30.3in /  1026hPa East 8mph /  12.9km/h 8mph /  12.9km/h 55% 0.000in /  0mm 563.00 W/m2
14:49 57.0 °F /  13.9 °C 41.0 °F /  5 °C 30.3in /  1026hPa NE 5mph /  8km/h 5mph /  8km/h 55% 0.000in /  0mm 555.00 W/m2
14:54 57.0 °F /  13.9 °C 41.0 °F /  5 °C 30.3in /  1026hPa NNE 5mph /  8km/h 5mph /  8km/h 55% 0.000in /  0mm 545.00 W/m2
14:59 57.0 °F /  13.9 °C 40.0 °F /  4.4 °C 30.3in /  1026hPa South 4mph /  6.4km/h 4mph /  6.4km/h 55% 0.000in /  0mm 531.00 W/m2
15:04 57.0 °F /  13.9 °C 40.0 °F /  4.4 °C 30.3in /  1026hPa ESE 4mph /  6.4km/h 5mph /  8km/h 55% 0.000in /  0mm 517.00 W/m2
15:09 57.0 °F /  13.9 °C 41.0 °F /  5 °C 30.3in /  1026hPa ESE 6mph /  9.7km/h 6mph /  9.7km/h 55% 0.000in /  0mm 501.00 W/m2
15:14 57.0 °F /  13.9 °C 41.0 °F /  5 °C 30.3in /  1026hPa ESE 4mph /  6.4km/h 7mph /  11.3km/h 55% 0.000in /  0mm 489.00 W/m2
15:19 57.0 °F /  13.9 °C 41.0 °F /  5 °C 30.3in /  1026hPa NE 5mph /  8km/h 6mph /  9.7km/h 55% 0.000in /  0mm 475.00 W/m2
15:24 57.0 °F /  13.9 °C 41.0 °F /  5 °C 30.3in /  1026hPa NE 5mph /  8km/h 6mph /  9.7km/h 54% 0.000in /  0mm 457.00 W/m2
15:29 57.0 °F /  13.9 °C 41.0 °F /  5 °C 30.3in /  1026hPa NE 9mph /  14.5km/h 9mph /  14.5km/h 54% 0.000in /  0mm 448.00 W/m2
15:34 57.0 °F /  13.9 °C 41.0 °F /  5 °C 30.3in /  1026hPa NNE 6mph /  9.7km/h 9mph /  14.5km/h 54% 0.000in /  0mm 436.00 W/m2
15:39 57.0 °F /  13.9 °C 41.0 °F /  5 °C 30.3in /  1026hPa NE 4mph /  6.4km/h 5mph /  8km/h 55% 0.000in /  0mm 415.00 W/m2
15:44 58.0 °F /  14.4 °C 41.0 °F /  5 °C 30.3in /  1026hPa NNE 5mph /  8km/h 5mph /  8km/h 54% 0.000in /  0mm 403.00 W/m2
15:49 58.0 °F /  14.4 °C 41.0 °F /  5 °C 30.3in /  1026hPa NNE 4mph /  6.4km/h 4mph /  6.4km/h 54% 0.000in /  0mm 383.00 W/m2
15:54 58.0 °F /  14.4 °C 41.0 °F /  5 °C 30.3in /  1026hPa NNE 4mph /  6.4km/h 5mph /  8km/h 53% 0.000in /  0mm 373.00 W/m2
15:59 58.0 °F /  14.4 °C 41.0 °F /  5 °C 30.3in /  1026hPa NE 6mph /  9.7km/h 6mph /  9.7km/h 53% 0.000in /  0mm 357.00 W/m2
16:04 57.0 °F /  13.9 °C 41.0 °F /  5 °C 30.3in /  1026hPa NE 6mph /  9.7km/h 6mph /  9.7km/h 53% 0.000in /  0mm 341.00 W/m2
16:09 57.0 °F /  13.9 °C 41.0 °F /  5 °C 30.3in /  1026hPa NNE 3mph /  4.8km/h 4mph /  6.4km/h 54% 0.000in /  0mm 325.00 W/m2
16:14 57.0 °F /  13.9 °C 41.0 °F /  5 °C 30.3in /  1026hPa NE 5mph /  8km/h 5mph /  8km/h 54% 0.000in /  0mm 306.00 W/m2
16:19 57.0 °F /  13.9 °C 41.0 °F /  5 °C 30.3in /  1026hPa ENE 4mph /  6.4km/h 4mph /  6.4km/h 54% 0.000in /  0mm 292.00 W/m2
16:24 57.0 °F /  13.9 °C 41.0 °F /  5 °C 30.3in /  1026hPa NNE 4mph /  6.4km/h 4mph /  6.4km/h 54% 0.000in /  0mm 272.00 W/m2
16:29 57.0 °F /  13.9 °C 41.0 °F /  5 °C 30.3in /  1026hPa NE 2mph /  3.2km/h 3mph /  4.8km/h 54% 0.000in /  0mm 255.00 W/m2
16:34 57.0 °F /  13.9 °C 41.0 °F /  5 °C 30.3in /  1026hPa NE 6mph /  9.7km/h 6mph /  9.7km/h 54% 0.000in /  0mm 135.00 W/m2
16:39 57.0 °F /  13.9 °C 41.0 °F /  5 °C 30.3in /  1026hPa North 4mph /  6.4km/h 4mph /  6.4km/h 54% 0.000in /  0mm 121.00 W/m2
16:44 57.0 °F /  13.9 °C 41.0 °F /  5 °C 30.3in /  1026hPa NE 3mph /  4.8km/h 4mph /  6.4km/h 54% 0.000in /  0mm 72.00 W/m2
16:49 57.0 °F /  13.9 °C 41.0 °F /  5 °C 30.3in /  1026hPa ENE 2mph /  3.2km/h 3mph /  4.8km/h 54% 0.000in /  0mm 58.00 W/m2
16:54 57.0 °F /  13.9 °C 41.0 °F /  5 °C 30.3in /  1026hPa East 2mph /  3.2km/h 3mph /  4.8km/h 55% 0.000in /  0mm 56.00 W/m2
16:59 57.0 °F /  13.9 °C 41.0 °F /  5 °C 30.3in /  1026hPa East 2mph /  3.2km/h 3mph /  4.8km/h 54% 0.000in /  0mm 35.00 W/m2
17:04 57.0 °F /  13.9 °C 41.0 °F /  5 °C 30.3in /  1026hPa SE 2mph /  3.2km/h 2mph /  3.2km/h 54% 0.000in /  0mm 72.00 W/m2
17:09 57.0 °F /  13.9 °C 41.0 °F /  5 °C 30.3in /  1026hPa SE 3mph /  4.8km/h 3mph /  4.8km/h 54% 0.000in /  0mm 67.00 W/m2
17:14 57.0 °F /  13.9 °C 41.0 °F /  5 °C 30.3in /  1026hPa East 3mph /  4.8km/h 3mph /  4.8km/h 55% 0.000in /  0mm 40.00 W/m2
17:19 57.0 °F /  13.9 °C 41.0 °F /  5 °C 30.3in /  1026hPa NE 2mph /  3.2km/h 2mph /  3.2km/h 55% 0.000in /  0mm 40.00 W/m2
17:24 56.0 °F /  13.3 °C 40.0 °F /  4.4 °C 30.3in /  1026hPa ENE 2mph /  3.2km/h 2mph /  3.2km/h 55% 0.000in /  0mm 30.00 W/m2
17:29 56.0 °F /  13.3 °C 41.0 °F /  5 °C 30.3in /  1026hPa ENE 2mph /  3.2km/h 3mph /  4.8km/h 56% 0.000in /  0mm 21.00 W/m2
17:34 56.0 °F /  13.3 °C 41.0 °F /  5 °C 30.3in /  1026hPa East 3mph /  4.8km/h 3mph /  4.8km/h 56% 0.000in /  0mm 18.00 W/m2
17:39 56.0 °F /  13.3 °C 40.0 °F /  4.4 °C 30.3in /  1026hPa ESE 2mph /  3.2km/h 3mph /  4.8km/h 56% 0.000in /  0mm 14.00 W/m2
17:44 56.0 °F /  13.3 °C 40.0 °F /  4.4 °C 30.3in /  1026hPa ESE 2mph /  3.2km/h 2mph /  3.2km/h 56% 0.000in /  0mm 11.00 W/m2
17:49 56.0 °F /  13.3 °C 40.0 °F /  4.4 °C 30.3in /  1026hPa East 1mph /  1.6km/h 3mph /  4.8km/h 57% 0.000in /  0mm 7.00 W/m2
17:54 55.0 °F /  12.8 °C 40.0 °F /  4.4 °C 30.3in /  1026hPa NE 2mph /  3.2km/h 2mph /  3.2km/h 58% 0.000in /  0mm 5.00 W/m2
17:59 55.0 °F /  12.8 °C 40.0 °F /  4.4 °C 30.3in /  1026hPa NE 2mph /  3.2km/h 2mph /  3.2km/h 58% 0.000in /  0mm 0.00 W/m2
18:04 55.0 °F /  12.8 °C 41.0 °F /  5 °C 30.3in /  1026hPa NE 2mph /  3.2km/h 2mph /  3.2km/h 59% 0.000in /  0mm 0.00 W/m2
18:09 54.0 °F /  12.2 °C 41.0 °F /  5 °C 30.3in /  1026hPa NE 2mph /  3.2km/h 2mph /  3.2km/h 60% 0.000in /  0mm 0.00 W/m2
18:14 54.0 °F /  12.2 °C 41.0 °F /  5 °C 30.3in /  1026hPa NE 1mph /  1.6km/h 2mph /  3.2km/h 61% 0.000in /  0mm 0.00 W/m2
18:19 54.0 °F /  12.2 °C 41.0 °F /  5 °C 30.3in /  1026hPa NE 2mph /  3.2km/h 2mph /  3.2km/h 61% 0.000in /  0mm 0.00 W/m2
18:24 53.0 °F /  11.7 °C 41.0 °F /  5 °C 30.3in /  1026hPa NE 2mph /  3.2km/h 2mph /  3.2km/h 62% 0.000in /  0mm 0.00 W/m2
18:29 53.0 °F /  11.7 °C 41.0 °F /  5 °C 30.3in /  1026hPa NE 2mph /  3.2km/h 2mph /  3.2km/h 63% 0.000in /  0mm 0.00 W/m2
18:34 53.0 °F /  11.7 °C 41.0 °F /  5 °C 30.3in /  1026hPa NE 2mph /  3.2km/h 2mph /  3.2km/h 63% 0.000in /  0mm 0.00 W/m2
18:39 53.0 °F /  11.7 °C 41.0 °F /  5 °C 30.3in /  1026hPa NE 2mph /  3.2km/h 2mph /  3.2km/h 64% 0.000in /  0mm 0.00 W/m2
18:44 52.0 °F /  11.1 °C 40.0 °F /  4.4 °C 30.3in /  1026hPa NE 2mph /  3.2km/h 2mph /  3.2km/h 64% 0.000in /  0mm 0.00 W/m2
18:49 52.0 °F /  11.1 °C 40.0 °F /  4.4 °C 30.3in /  1026hPa NE 2mph /  3.2km/h 2mph /  3.2km/h 65% 0.000in /  0mm 0.00 W/m2
18:54 52.0 °F /  11.1 °C 40.0 °F /  4.4 °C 30.3in /  1026hPa NE 2mph /  3.2km/h 2mph /  3.2km/h 65% 0.000in /  0mm 0.00 W/m2
18:59 51.0 °F /  10.6 °C 40.0 °F /  4.4 °C 30.3in /  1026hPa NE 2mph /  3.2km/h 2mph /  3.2km/h 66% 0.000in /  0mm 0.00 W/m2
19:04 51.0 °F /  10.6 °C 40.0 °F /  4.4 °C 30.3in /  1026hPa NE 1mph /  1.6km/h 2mph /  3.2km/h 67% 0.000in /  0mm 0.00 W/m2
19:09 51.0 °F /  10.6 °C 40.0 °F /  4.4 °C 30.3in /  1026hPa NE 2mph /  3.2km/h 3mph /  4.8km/h 67% 0.000in /  0mm 0.00 W/m2
19:14 50.0 °F /  10 °C 40.0 °F /  4.4 °C 30.3in /  1026hPa NE 1mph /  1.6km/h 2mph /  3.2km/h 67% 0.000in /  0mm 0.00 W/m2
19:19 50.0 °F /  10 °C 40.0 °F /  4.4 °C 30.3in /  1026hPa NE 2mph /  3.2km/h 2mph /  3.2km/h 68% 0.000in /  0mm 0.00 W/m2
19:24 50.0 °F /  10 °C 40.0 °F /  4.4 °C 30.3in /  1026hPa NE 2mph /  3.2km/h 2mph /  3.2km/h 68% 0.000in /  0mm 0.00 W/m2
19:29 50.0 °F /  10 °C 40.0 °F /  4.4 °C 30.3in /  1026hPa NE 1mph /  1.6km/h 1mph /  1.6km/h 69% 0.000in /  0mm 0.00 W/m2
19:34 49.0 °F /  9.4 °C 40.0 °F /  4.4 °C 30.3in /  1026hPa NE 1mph /  1.6km/h 1mph /  1.6km/h 69% 0.000in /  0mm 0.00 W/m2
19:39 49.0 °F /  9.4 °C 39.0 °F /  3.9 °C 30.3in /  1026hPa NE 1mph /  1.6km/h 1mph /  1.6km/h 69% 0.000in /  0mm 0.00 W/m2
19:44 49.0 °F /  9.4 °C 39.0 °F /  3.9 °C 30.3in /  1026hPa NE 1mph /  1.6km/h 2mph /  3.2km/h 69% 0.000in /  0mm 0.00 W/m2
19:49 49.0 °F /  9.4 °C 39.0 °F /  3.9 °C 30.3in /  1026hPa NE 1mph /  1.6km/h 2mph /  3.2km/h 70% 0.000in /  0mm 0.00 W/m2
19:54 48.0 °F /  8.9 °C 39.0 °F /  3.9 °C 30.3in /  1026hPa NNE 3mph /  4.8km/h 3mph /  4.8km/h 70% 0.000in /  0mm 0.00 W/m2
19:59 48.0 °F /  8.9 °C 39.0 °F /  3.9 °C 30.3in /  1026hPa North 4mph /  6.4km/h 4mph /  6.4km/h 70% 0.000in /  0mm 0.00 W/m2
20:04 48.0 °F /  8.9 °C 39.0 °F /  3.9 °C 30.3in /  1026hPa North 2mph /  3.2km/h 2mph /  3.2km/h 70% 0.000in /  0mm 0.00 W/m2
20:09 48.0 °F /  8.9 °C 38.0 °F /  3.3 °C 30.3in /  1026hPa North 2mph /  3.2km/h 2mph /  3.2km/h 70% 0.000in /  0mm 0.00 W/m2
20:14 48.0 °F /  8.9 °C 39.0 °F /  3.9 °C 30.3in /  1026hPa North 2mph /  3.2km/h 2mph /  3.2km/h 71% 0.000in /  0mm 0.00 W/m2
20:19 48.0 °F /  8.9 °C 39.0 °F /  3.9 °C 30.3in /  1026hPa North 1mph /  1.6km/h 1mph /  1.6km/h 71% 0.000in /  0mm 0.00 W/m2
20:24 47.0 °F /  8.3 °C 38.0 °F /  3.3 °C 30.3in /  1026hPa North 2mph /  3.2km/h 2mph /  3.2km/h 71% 0.000in /  0mm 0.00 W/m2
20:29 47.0 °F /  8.3 °C 38.0 °F /  3.3 °C 30.3in /  1026hPa North 1mph /  1.6km/h 2mph /  3.2km/h 71% 0.000in /  0mm 0.00 W/m2
20:34 47.0 °F /  8.3 °C 38.0 °F /  3.3 °C 30.3in /  1026hPa Calm     70% 0.000in /  0mm 0.00 W/m2
20:39 47.0 °F /  8.3 °C 38.0 °F /  3.3 °C 30.3in /  1026hPa Calm     70% 0.000in /  0mm 0.00 W/m2
20:44 47.0 °F /  8.3 °C 37.0 °F /  2.8 °C 30.3in /  1026hPa North 1mph /  1.6km/h 1mph /  1.6km/h 70% 0.000in /  0mm 0.00 W/m2
20:49 46.0 °F /  7.8 °C 38.0 °F /  3.3 °C 30.3in /  1026hPa North 1mph /  1.6km/h 1mph /  1.6km/h 71% 0.000in /  0mm 0.00 W/m2
20:54 46.0 °F /  7.8 °C 37.0 °F /  2.8 °C 30.3in /  1026hPa North 1mph /  1.6km/h 1mph /  1.6km/h 71% 0.000in /  0mm 0.00 W/m2
20:59 46.0 °F /  7.8 °C 37.0 °F /  2.8 °C 30.3in /  1026hPa North 2mph /  3.2km/h 2mph /  3.2km/h 71% 0.000in /  0mm 0.00 W/m2
21:04 46.0 °F /  7.8 °C 37.0 °F /  2.8 °C 30.3in /  1026hPa Calm     71% 0.000in /  0mm 0.00 W/m2
21:09 46.0 °F /  7.8 °C 37.0 °F /  2.8 °C 30.3in /  1026hPa Calm     71% 0.000in /  0mm 0.00 W/m2
21:14 45.0 °F /  7.2 °C 36.0 °F /  2.2 °C 30.3in /  1026hPa Calm     71% 0.000in /  0mm 0.00 W/m2
21:19 45.0 °F /  7.2 °C 36.0 °F /  2.2 °C 30.3in /  1026hPa Calm     71% 0.000in /  0mm 0.00 W/m2
21:24 45.0 °F /  7.2 °C 36.0 °F /  2.2 °C 30.3in /  1026hPa Calm     71% 0.000in /  0mm 0.00 W/m2
21:29 45.0 °F /  7.2 °C 36.0 °F /  2.2 °C 30.3in /  1026hPa North 2mph /  3.2km/h 2mph /  3.2km/h 72% 0.000in /  0mm 0.00 W/m2
21:34 44.0 °F /  6.7 °C 36.0 °F /  2.2 °C 30.3in /  1026hPa North 2mph /  3.2km/h 2mph /  3.2km/h 72% 0.000in /  0mm 0.00 W/m2
21:39 44.0 °F /  6.7 °C 36.0 °F /  2.2 °C 30.3in /  1026hPa North 2mph /  3.2km/h 2mph /  3.2km/h 72% 0.000in /  0mm 0.00 W/m2
21:44 44.0 °F /  6.7 °C 36.0 °F /  2.2 °C 30.3in /  1026hPa North 2mph /  3.2km/h 2mph /  3.2km/h 73% 0.000in /  0mm 0.00 W/m2
21:49 44.0 °F /  6.7 °C 36.0 °F /  2.2 °C 30.3in /  1026hPa North 1mph /  1.6km/h 2mph /  3.2km/h 73% 0.000in /  0mm 0.00 W/m2
21:54 44.0 °F /  6.7 °C 36.0 °F /  2.2 °C 30.3in /  1026hPa North 1mph /  1.6km/h 1mph /  1.6km/h 73% 0.000in /  0mm 0.00 W/m2
21:59 44.0 °F /  6.7 °C 36.0 °F /  2.2 °C 30.3in /  1026hPa North 2mph /  3.2km/h 2mph /  3.2km/h 74% 0.000in /  0mm 0.00 W/m2
22:04 43.0 °F /  6.1 °C 36.0 °F /  2.2 °C 30.3in /  1026hPa North 2mph /  3.2km/h 2mph /  3.2km/h 74% 0.000in /  0mm 0.00 W/m2
22:09 43.0 °F /  6.1 °C 36.0 °F /  2.2 °C 30.3in /  1026hPa North 2mph /  3.2km/h 2mph /  3.2km/h 74% 0.000in /  0mm 0.00 W/m2
22:14 43.0 °F /  6.1 °C 36.0 °F /  2.2 °C 30.3in /  1026hPa North 3mph /  4.8km/h 3mph /  4.8km/h 74% 0.000in /  0mm 0.00 W/m2
22:19 43.0 °F /  6.1 °C 35.0 °F /  1.7 °C 30.3in /  1026hPa North 2mph /  3.2km/h 3mph /  4.8km/h 73% 0.000in /  0mm 0.00 W/m2
22:24 44.0 °F /  6.7 °C 35.0 °F /  1.7 °C 30.3in /  1026hPa North 2mph /  3.2km/h 2mph /  3.2km/h 73% 0.000in /  0mm 0.00 W/m2
22:29 44.0 °F /  6.7 °C 36.0 °F /  2.2 °C 30.3in /  1026hPa North 4mph /  6.4km/h 4mph /  6.4km/h 73% 0.000in /  0mm 0.00 W/m2
22:34 44.0 °F /  6.7 °C 36.0 °F /  2.2 °C 30.3in /  1026hPa NNE 4mph /  6.4km/h 4mph /  6.4km/h 73% 0.000in /  0mm 0.00 W/m2
22:39 44.0 °F /  6.7 °C 36.0 °F /  2.2 °C 30.3in /  1026hPa NE 4mph /  6.4km/h 4mph /  6.4km/h 72% 0.000in /  0mm 0.00 W/m2
22:44 44.0 °F /  6.7 °C 35.0 °F /  1.7 °C 30.4in /  1029.3hPa NE 4mph /  6.4km/h 4mph /  6.4km/h 70% 0.000in /  0mm 0.00 W/m2
22:49 45.0 °F /  7.2 °C 35.0 °F /  1.7 °C 30.4in /  1029.3hPa NE 5mph /  8km/h 5mph /  8km/h 69% 0.000in /  0mm 0.00 W/m2
22:54 45.0 °F /  7.2 °C 35.0 °F /  1.7 °C 30.4in /  1029.3hPa NE 4mph /  6.4km/h 5mph /  8km/h 68% 0.000in /  0mm 0.00 W/m2
22:59 45.0 °F /  7.2 °C 35.0 °F /  1.7 °C 30.4in /  1029.3hPa NE 5mph /  8km/h 6mph /  9.7km/h 67% 0.000in /  0mm 0.00 W/m2
23:04 46.0 °F /  7.8 °C 35.0 °F /  1.7 °C 30.4in /  1029.3hPa NE 5mph /  8km/h 6mph /  9.7km/h 67% 0.000in /  0mm 0.00 W/m2
23:09 46.0 °F /  7.8 °C 35.0 °F /  1.7 °C 30.3in /  1026hPa NE 3mph /  4.8km/h 4mph /  6.4km/h 66% 0.000in /  0mm 0.00 W/m2
23:14 46.0 °F /  7.8 °C 35.0 °F /  1.7 °C 30.4in /  1029.3hPa NE 4mph /  6.4km/h 6mph /  9.7km/h 66% 0.000in /  0mm 0.00 W/m2
23:19 46.0 °F /  7.8 °C 35.0 °F /  1.7 °C 30.4in /  1029.3hPa NE 4mph /  6.4km/h 4mph /  6.4km/h 65% 0.000in /  0mm 0.00 W/m2
23:24 46.0 °F /  7.8 °C 35.0 °F /  1.7 °C 30.4in /  1029.3hPa ENE 5mph /  8km/h 5mph /  8km/h 64% 0.000in /  0mm 0.00 W/m2
23:29 46.0 °F /  7.8 °C 35.0 °F /  1.7 °C 30.4in /  1029.3hPa ENE 4mph /  6.4km/h 5mph /  8km/h 64% 0.000in /  0mm 0.00 W/m2
23:34 46.0 °F /  7.8 °C 35.0 °F /  1.7 °C 30.3in /  1026hPa NE 5mph /  8km/h 5mph /  8km/h 64% 0.000in /  0mm 0.00 W/m2
23:39 46.0 °F /  7.8 °C 35.0 °F /  1.7 °C 30.3in /  1026hPa ENE 5mph /  8km/h 6mph /  9.7km/h 64% 0.000in /  0mm 0.00 W/m2
23:44 46.0 °F /  7.8 °C 34.0 °F /  1.1 °C 30.3in /  1026hPa NE 4mph /  6.4km/h 6mph /  9.7km/h 63% 0.000in /  0mm 0.00 W/m2
23:49 46.0 °F /  7.8 °C 34.0 °F /  1.1 °C 30.3in /  1026hPa NE 3mph /  4.8km/h 3mph /  4.8km/h 63% 0.000in /  0mm 0.00 W/m2
23:54 46.0 °F /  7.8 °C 34.0 °F /  1.1 °C 30.3in /  1026hPa ENE 4mph /  6.4km/h 4mph /  6.4km/h 63% 0.000in /  0mm 0.00 W/m2
23:59 46.0 °F /  7.8 °C 34.0 °F /  1.1 °C 30.3in /  1026hPa East 3mph /  4.8km/h 4mph /  6.4km/h 63% 0.000in /  0mm 0.00 W/m2
Villages of Bridgestone, Spring, TX USA
Compliments of Weather Underground - 4 mb